sensor_id;sensor_type;location;lat;lon;timestamp;P1;durP1;ratioP1;P2;durP2;ratioP2
8490;SDS011;4282;49.986;7.938;2023-07-28T00:01:02;2.97;;;1.83;;
8490;SDS011;4282;49.986;7.938;2023-07-28T00:03:30;2.80;;;1.60;;
8490;SDS011;4282;49.986;7.938;2023-07-28T00:05:59;3.23;;;1.43;;
8490;SDS011;4282;49.986;7.938;2023-07-28T00:08:27;2.23;;;1.60;;
8490;SDS011;4282;49.986;7.938;2023-07-28T00:10:55;1.57;;;1.43;;
8490;SDS011;4282;49.986;7.938;2023-07-28T00:13:26;3.20;;;1.43;;
8490;SDS011;4282;49.986;7.938;2023-07-28T00:15:54;2.30;;;1.73;;
8490;SDS011;4282;49.986;7.938;2023-07-28T00:18:22;3.33;;;2.00;;
8490;SDS011;4282;49.986;7.938;2023-07-28T00:20:51;2.30;;;1.70;;
8490;SDS011;4282;49.986;7.938;2023-07-28T00:23:19;4.43;;;1.67;;
8490;SDS011;4282;49.986;7.938;2023-07-28T00:25:47;3.50;;;1.87;;
8490;SDS011;4282;49.986;7.938;2023-07-28T00:28:15;2.43;;;1.60;;
8490;SDS011;4282;49.986;7.938;2023-07-28T00:30:46;2.70;;;1.70;;
8490;SDS011;4282;49.986;7.938;2023-07-28T00:33:16;4.30;;;2.00;;
8490;SDS011;4282;49.986;7.938;2023-07-28T00:35:45;2.87;;;2.10;;
8490;SDS011;4282;49.986;7.938;2023-07-28T00:38:13;2.63;;;1.97;;
8490;SDS011;4282;49.986;7.938;2023-07-28T00:40:41;3.50;;;2.40;;
8490;SDS011;4282;49.986;7.938;2023-07-28T00:43:09;3.30;;;2.47;;
8490;SDS011;4282;49.986;7.938;2023-07-28T00:45:38;5.37;;;1.77;;
8490;SDS011;4282;49.986;7.938;2023-07-28T00:48:10;3.60;;;2.07;;
8490;SDS011;4282;49.986;7.938;2023-07-28T00:50:40;2.83;;;2.30;;
8490;SDS011;4282;49.986;7.938;2023-07-28T00:53:09;4.97;;;2.60;;
8490;SDS011;4282;49.986;7.938;2023-07-28T00:55:37;3.40;;;1.63;;
8490;SDS011;4282;49.986;7.938;2023-07-28T00:58:05;2.93;;;2.30;;
8490;SDS011;4282;49.986;7.938;2023-07-28T01:00:33;3.27;;;2.00;;
8490;SDS011;4282;49.986;7.938;2023-07-28T01:03:02;4.00;;;2.37;;
8490;SDS011;4282;49.986;7.938;2023-07-28T01:05:36;4.63;;;2.57;;
8490;SDS011;4282;49.986;7.938;2023-07-28T01:08:10;3.40;;;1.80;;
8490;SDS011;4282;49.986;7.938;2023-07-28T01:10:40;5.33;;;2.00;;
8490;SDS011;4282;49.986;7.938;2023-07-28T01:13:09;4.57;;;2.17;;
8490;SDS011;4282;49.986;7.938;2023-07-28T01:15:37;6.20;;;2.27;;
8490;SDS011;4282;49.986;7.938;2023-07-28T01:18:05;3.40;;;2.37;;
8490;SDS011;4282;49.986;7.938;2023-07-28T01:20:36;3.63;;;2.43;;
8490;SDS011;4282;49.986;7.938;2023-07-28T01:23:07;3.77;;;2.20;;
8490;SDS011;4282;49.986;7.938;2023-07-28T01:25:39;2.67;;;2.10;;
8490;SDS011;4282;49.986;7.938;2023-07-28T01:28:17;2.87;;;2.30;;
8490;SDS011;4282;49.986;7.938;2023-07-28T01:30:46;3.03;;;2.10;;
8490;SDS011;4282;49.986;7.938;2023-07-28T01:33:15;5.47;;;2.10;;
8490;SDS011;4282;49.986;7.938;2023-07-28T01:35:43;4.00;;;1.80;;
8490;SDS011;4282;49.986;7.938;2023-07-28T01:38:12;2.20;;;1.97;;
8490;SDS011;4282;49.986;7.938;2023-07-28T01:40:41;3.00;;;2.10;;
8490;SDS011;4282;49.986;7.938;2023-07-28T01:43:09;4.87;;;2.07;;
8490;SDS011;4282;49.986;7.938;2023-07-28T01:45:40;4.17;;;2.40;;
8490;SDS011;4282;49.986;7.938;2023-07-28T01:48:08;3.40;;;2.40;;
8490;SDS011;4282;49.986;7.938;2023-07-28T01:50:37;3.07;;;2.17;;
8490;SDS011;4282;49.986;7.938;2023-07-28T01:53:06;4.17;;;2.20;;
8490;SDS011;4282;49.986;7.938;2023-07-28T01:55:35;3.43;;;2.27;;
8490;SDS011;4282;49.986;7.938;2023-07-28T01:58:03;3.60;;;2.40;;
8490;SDS011;4282;49.986;7.938;2023-07-28T02:00:31;4.23;;;2.73;;
8490;SDS011;4282;49.986;7.938;2023-07-28T02:03:02;4.43;;;2.47;;
8490;SDS011;4282;49.986;7.938;2023-07-28T02:05:30;3.67;;;2.30;;
8490;SDS011;4282;49.986;7.938;2023-07-28T02:07:59;4.50;;;2.50;;
8490;SDS011;4282;49.986;7.938;2023-07-28T02:10:28;3.67;;;2.60;;
8490;SDS011;4282;49.986;7.938;2023-07-28T02:12:56;5.60;;;2.60;;
8490;SDS011;4282;49.986;7.938;2023-07-28T02:15:25;4.47;;;2.70;;
8490;SDS011;4282;49.986;7.938;2023-07-28T02:17:53;3.17;;;2.57;;
8490;SDS011;4282;49.986;7.938;2023-07-28T02:20:24;3.47;;;2.30;;
8490;SDS011;4282;49.986;7.938;2023-07-28T02:22:52;3.10;;;2.70;;
8490;SDS011;4282;49.986;7.938;2023-07-28T02:25:21;3.23;;;2.13;;
8490;SDS011;4282;49.986;7.938;2023-07-28T02:27:49;2.87;;;2.17;;
8490;SDS011;4282;49.986;7.938;2023-07-28T02:30:18;4.20;;;2.30;;
8490;SDS011;4282;49.986;7.938;2023-07-28T02:32:46;3.40;;;2.50;;
8490;SDS011;4282;49.986;7.938;2023-07-28T02:35:14;4.33;;;2.70;;
8490;SDS011;4282;49.986;7.938;2023-07-28T02:37:45;6.27;;;2.30;;
8490;SDS011;4282;49.986;7.938;2023-07-28T02:40:13;4.10;;;2.37;;
8490;SDS011;4282;49.986;7.938;2023-07-28T02:42:42;4.97;;;2.43;;
8490;SDS011;4282;49.986;7.938;2023-07-28T02:45:10;4.53;;;2.43;;
8490;SDS011;4282;49.986;7.938;2023-07-28T02:47:38;2.57;;;2.20;;
8490;SDS011;4282;49.986;7.938;2023-07-28T02:50:07;3.50;;;2.77;;
8490;SDS011;4282;49.986;7.938;2023-07-28T02:52:36;3.07;;;2.70;;
8490;SDS011;4282;49.986;7.938;2023-07-28T02:55:07;4.37;;;2.50;;
8490;SDS011;4282;49.986;7.938;2023-07-28T02:57:36;3.17;;;2.63;;
8490;SDS011;4282;49.986;7.938;2023-07-28T03:00:05;3.23;;;2.93;;
8490;SDS011;4282;49.986;7.938;2023-07-28T03:02:35;5.17;;;2.10;;
8490;SDS011;4282;49.986;7.938;2023-07-28T03:05:04;3.80;;;2.40;;
8490;SDS011;4282;49.986;7.938;2023-07-28T03:07:32;3.30;;;2.53;;
8490;SDS011;4282;49.986;7.938;2023-07-28T03:10:01;2.90;;;2.10;;
8490;SDS011;4282;49.986;7.938;2023-07-28T03:12:31;2.93;;;2.23;;
8490;SDS011;4282;49.986;7.938;2023-07-28T03:15:00;1.77;;;1.60;;
8490;SDS011;4282;49.986;7.938;2023-07-28T03:17:28;4.30;;;2.03;;
8490;SDS011;4282;49.986;7.938;2023-07-28T03:19:56;2.60;;;2.20;;
8490;SDS011;4282;49.986;7.938;2023-07-28T03:22:25;3.10;;;1.80;;
8490;SDS011;4282;49.986;7.938;2023-07-28T03:24:53;2.43;;;2.03;;
8490;SDS011;4282;49.986;7.938;2023-07-28T03:27:21;2.23;;;1.80;;
8490;SDS011;4282;49.986;7.938;2023-07-28T03:29:52;1.90;;;1.70;;
8490;SDS011;4282;49.986;7.938;2023-07-28T03:32:20;1.80;;;1.60;;
8490;SDS011;4282;49.986;7.938;2023-07-28T03:34:48;2.47;;;1.57;;
8490;SDS011;4282;49.986;7.938;2023-07-28T03:37:17;3.70;;;1.60;;
8490;SDS011;4282;49.986;7.938;2023-07-28T03:39:45;7.90;;;2.40;;
8490;SDS011;4282;49.986;7.938;2023-07-28T03:42:13;3.50;;;1.70;;
8490;SDS011;4282;49.986;7.938;2023-07-28T03:44:42;3.07;;;1.80;;
8490;SDS011;4282;49.986;7.938;2023-07-28T03:47:12;2.27;;;1.70;;
8490;SDS011;4282;49.986;7.938;2023-07-28T03:49:41;3.70;;;1.60;;
8490;SDS011;4282;49.986;7.938;2023-07-28T03:52:09;3.27;;;1.60;;
8490;SDS011;4282;49.986;7.938;2023-07-28T03:54:37;3.20;;;1.80;;
8490;SDS011;4282;49.986;7.938;2023-07-28T03:57:06;4.70;;;2.27;;
8490;SDS011;4282;49.986;7.938;2023-07-28T03:59:36;3.07;;;2.03;;
8490;SDS011;4282;49.986;7.938;2023-07-28T04:02:04;2.63;;;2.10;;
8490;SDS011;4282;49.986;7.938;2023-07-28T04:04:35;3.00;;;2.40;;
8490;SDS011;4282;49.986;7.938;2023-07-28T04:07:04;4.43;;;2.60;;
8490;SDS011;4282;49.986;7.938;2023-07-28T04:09:32;3.77;;;2.47;;
8490;SDS011;4282;49.986;7.938;2023-07-28T04:12:01;4.83;;;2.90;;
8490;SDS011;4282;49.986;7.938;2023-07-28T04:14:29;3.37;;;2.60;;
8490;SDS011;4282;49.986;7.938;2023-07-28T04:16:57;3.47;;;2.63;;
8490;SDS011;4282;49.986;7.938;2023-07-28T04:19:25;2.73;;;2.27;;
8490;SDS011;4282;49.986;7.938;2023-07-28T04:21:56;2.63;;;2.13;;
8490;SDS011;4282;49.986;7.938;2023-07-28T04:24:25;2.53;;;2.33;;
8490;SDS011;4282;49.986;7.938;2023-07-28T04:26:53;4.00;;;2.70;;
8490;SDS011;4282;49.986;7.938;2023-07-28T04:29:21;3.43;;;2.43;;
8490;SDS011;4282;49.986;7.938;2023-07-28T04:31:49;2.97;;;2.40;;
8490;SDS011;4282;49.986;7.938;2023-07-28T04:34:18;3.90;;;2.83;;
8490;SDS011;4282;49.986;7.938;2023-07-28T04:36:46;4.73;;;2.70;;
8490;SDS011;4282;49.986;7.938;2023-07-28T04:39:17;4.37;;;2.70;;
8490;SDS011;4282;49.986;7.938;2023-07-28T04:41:45;4.50;;;2.37;;
8490;SDS011;4282;49.986;7.938;2023-07-28T04:44:13;3.10;;;2.50;;
8490;SDS011;4282;49.986;7.938;2023-07-28T04:46:41;4.37;;;2.37;;
8490;SDS011;4282;49.986;7.938;2023-07-28T04:49:12;2.77;;;1.93;;
8490;SDS011;4282;49.986;7.938;2023-07-28T04:51:41;3.93;;;2.30;;
8490;SDS011;4282;49.986;7.938;2023-07-28T04:54:09;2.50;;;2.30;;
8490;SDS011;4282;49.986;7.938;2023-07-28T04:56:40;3.20;;;2.33;;
8490;SDS011;4282;49.986;7.938;2023-07-28T04:59:08;4.23;;;2.40;;
8490;SDS011;4282;49.986;7.938;2023-07-28T05:01:36;4.53;;;2.23;;
8490;SDS011;4282;49.986;7.938;2023-07-28T05:04:04;2.77;;;1.50;;
8490;SDS011;4282;49.986;7.938;2023-07-28T05:06:33;1.30;;;1.13;;
8490;SDS011;4282;49.986;7.938;2023-07-28T05:09:01;1.00;;;0.90;;
8490;SDS011;4282;49.986;7.938;2023-07-28T05:11:29;1.60;;;1.03;;
8490;SDS011;4282;49.986;7.938;2023-07-28T05:14:00;2.20;;;1.10;;
8490;SDS011;4282;49.986;7.938;2023-07-28T05:16:31;1.40;;;1.00;;
8490;SDS011;4282;49.986;7.938;2023-07-28T05:18:59;1.27;;;1.17;;
8490;SDS011;4282;49.986;7.938;2023-07-28T05:21:27;2.17;;;1.13;;
8490;SDS011;4282;49.986;7.938;2023-07-28T05:23:56;1.73;;;1.30;;
8490;SDS011;4282;49.986;7.938;2023-07-28T05:26:24;2.97;;;1.20;;
8490;SDS011;4282;49.986;7.938;2023-07-28T05:28:52;1.27;;;1.17;;
8490;SDS011;4282;49.986;7.938;2023-07-28T05:31:23;2.60;;;1.00;;
8490;SDS011;4282;49.986;7.938;2023-07-28T05:33:51;2.37;;;1.23;;
8490;SDS011;4282;49.986;7.938;2023-07-28T05:36:20;3.13;;;1.13;;
8490;SDS011;4282;49.986;7.938;2023-07-28T05:38:48;2.00;;;0.90;;
8490;SDS011;4282;49.986;7.938;2023-07-28T05:41:18;1.20;;;1.00;;
8490;SDS011;4282;49.986;7.938;2023-07-28T05:43:47;3.37;;;1.37;;
8490;SDS011;4282;49.986;7.938;2023-07-28T05:46:15;10.07;;;1.93;;
8490;SDS011;4282;49.986;7.938;2023-07-28T05:48:46;3.63;;;1.43;;
8490;SDS011;4282;49.986;7.938;2023-07-28T05:51:14;2.10;;;1.13;;
8490;SDS011;4282;49.986;7.938;2023-07-28T05:53:43;1.80;;;1.20;;
8490;SDS011;4282;49.986;7.938;2023-07-28T05:56:11;1.77;;;1.20;;
8490;SDS011;4282;49.986;7.938;2023-07-28T05:58:39;2.33;;;1.30;;
8490;SDS011;4282;49.986;7.938;2023-07-28T06:01:07;1.97;;;1.10;;
8490;SDS011;4282;49.986;7.938;2023-07-28T06:03:36;1.93;;;1.10;;
8490;SDS011;4282;49.986;7.938;2023-07-28T06:06:06;1.10;;;0.80;;
8490;SDS011;4282;49.986;7.938;2023-07-28T06:08:35;3.00;;;1.20;;
8490;SDS011;4282;49.986;7.938;2023-07-28T06:11:03;2.13;;;1.20;;
8490;SDS011;4282;49.986;7.938;2023-07-28T06:13:33;2.17;;;1.40;;
8490;SDS011;4282;49.986;7.938;2023-07-28T06:16:01;6.33;;;1.50;;
8490;SDS011;4282;49.986;7.938;2023-07-28T06:18:29;1.37;;;1.10;;
8490;SDS011;4282;49.986;7.938;2023-07-28T06:20:57;3.50;;;1.13;;
8490;SDS011;4282;49.986;7.938;2023-07-28T06:23:28;1.33;;;1.13;;
8490;SDS011;4282;49.986;7.938;2023-07-28T06:25:56;0.97;;;0.90;;
8490;SDS011;4282;49.986;7.938;2023-07-28T06:28:25;1.60;;;1.00;;
8490;SDS011;4282;49.986;7.938;2023-07-28T06:30:53;2.23;;;1.10;;
8490;SDS011;4282;49.986;7.938;2023-07-28T06:33:22;5.87;;;1.23;;
8490;SDS011;4282;49.986;7.938;2023-07-28T06:35:50;2.03;;;1.23;;
8490;SDS011;4282;49.986;7.938;2023-07-28T06:38:18;2.67;;;1.10;;
8490;SDS011;4282;49.986;7.938;2023-07-28T06:40:52;1.57;;;1.47;;
8490;SDS011;4282;49.986;7.938;2023-07-28T06:43:20;2.78;;;1.20;;
8490;SDS011;4282;49.986;7.938;2023-07-28T06:45:50;3.63;;;1.33;;
8490;SDS011;4282;49.986;7.938;2023-07-28T06:48:19;0.73;;;0.73;;
8490;SDS011;4282;49.986;7.938;2023-07-28T06:50:47;2.03;;;1.00;;
8490;SDS011;4282;49.986;7.938;2023-07-28T06:53:15;1.10;;;0.80;;
8490;SDS011;4282;49.986;7.938;2023-07-28T06:55:44;2.15;;;1.08;;
8490;SDS011;4282;49.986;7.938;2023-07-28T06:58:14;0.70;;;0.70;;
8490;SDS011;4282;49.986;7.938;2023-07-28T07:00:43;2.78;;;1.00;;
8490;SDS011;4282;49.986;7.938;2023-07-28T07:03:11;1.13;;;0.82;;
8490;SDS011;4282;49.986;7.938;2023-07-28T07:05:39;1.33;;;0.85;;
8490;SDS011;4282;49.986;7.938;2023-07-28T07:08:08;5.63;;;1.40;;
8490;SDS011;4282;49.986;7.938;2023-07-28T07:10:37;1.70;;;0.80;;
8490;SDS011;4282;49.986;7.938;2023-07-28T07:13:05;1.15;;;0.90;;
8490;SDS011;4282;49.986;7.938;2023-07-28T07:15:36;2.03;;;0.80;;
8490;SDS011;4282;49.986;7.938;2023-07-28T07:18:05;1.98;;;0.90;;
8490;SDS011;4282;49.986;7.938;2023-07-28T07:20:34;2.08;;;0.80;;
8490;SDS011;4282;49.986;7.938;2023-07-28T07:23:02;0.80;;;0.80;;
8490;SDS011;4282;49.986;7.938;2023-07-28T07:25:30;2.78;;;0.80;;
8490;SDS011;4282;49.986;7.938;2023-07-28T07:27:59;1.00;;;0.65;;
8490;SDS011;4282;49.986;7.938;2023-07-28T07:30:27;0.65;;;0.57;;
8490;SDS011;4282;49.986;7.938;2023-07-28T07:32:58;0.75;;;0.73;;
8490;SDS011;4282;49.986;7.938;2023-07-28T07:35:27;1.00;;;0.70;;
8490;SDS011;4282;49.986;7.938;2023-07-28T07:37:55;1.60;;;0.60;;
8490;SDS011;4282;49.986;7.938;2023-07-28T07:40:23;1.15;;;0.80;;
8490;SDS011;4282;49.986;7.938;2023-07-28T07:42:51;1.38;;;0.70;;
8490;SDS011;4282;49.986;7.938;2023-07-28T07:45:21;0.60;;;0.60;;
8490;SDS011;4282;49.986;7.938;2023-07-28T07:47:49;1.30;;;0.90;;
8490;SDS011;4282;49.986;7.938;2023-07-28T07:50:20;1.40;;;0.68;;
8490;SDS011;4282;49.986;7.938;2023-07-28T07:52:48;0.88;;;0.63;;
8490;SDS011;4282;49.986;7.938;2023-07-28T07:55:17;1.52;;;0.80;;
8490;SDS011;4282;49.986;7.938;2023-07-28T07:57:46;1.95;;;0.60;;
8490;SDS011;4282;49.986;7.938;2023-07-28T08:00:14;0.40;;;0.40;;
8490;SDS011;4282;49.986;7.938;2023-07-28T08:02:43;0.80;;;0.80;;
8490;SDS011;4282;49.986;7.938;2023-07-28T08:05:12;0.95;;;0.60;;
8490;SDS011;4282;49.986;7.938;2023-07-28T08:07:43;1.25;;;0.70;;
8490;SDS011;4282;49.986;7.938;2023-07-28T08:10:12;0.77;;;0.77;;
8490;SDS011;4282;49.986;7.938;2023-07-28T08:12:41;1.08;;;0.77;;
8490;SDS011;4282;49.986;7.938;2023-07-28T08:15:10;0.82;;;0.70;;
8490;SDS011;4282;49.986;7.938;2023-07-28T08:17:38;0.60;;;0.60;;
8490;SDS011;4282;49.986;7.938;2023-07-28T08:20:07;0.93;;;0.80;;
8490;SDS011;4282;49.986;7.938;2023-07-28T08:22:36;1.00;;;0.60;;
8490;SDS011;4282;49.986;7.938;2023-07-28T08:25:07;0.95;;;0.65;;
8490;SDS011;4282;49.986;7.938;2023-07-28T08:27:35;1.75;;;0.70;;
8490;SDS011;4282;49.986;7.938;2023-07-28T08:30:04;0.98;;;0.70;;
8490;SDS011;4282;49.986;7.938;2023-07-28T08:32:33;0.88;;;0.70;;
8490;SDS011;4282;49.986;7.938;2023-07-28T08:35:01;1.08;;;0.80;;
8490;SDS011;4282;49.986;7.938;2023-07-28T08:37:30;2.25;;;0.68;;
8490;SDS011;4282;49.986;7.938;2023-07-28T08:39:58;0.55;;;0.55;;
8490;SDS011;4282;49.986;7.938;2023-07-28T08:42:32;0.60;;;0.60;;
8490;SDS011;4282;49.986;7.938;2023-07-28T08:45:04;1.20;;;0.70;;
8490;SDS011;4282;49.986;7.938;2023-07-28T08:47:34;2.70;;;0.80;;
8490;SDS011;4282;49.986;7.938;2023-07-28T08:50:04;0.90;;;0.80;;
8490;SDS011;4282;49.986;7.938;2023-07-28T08:52:33;2.13;;;0.70;;
8490;SDS011;4282;49.986;7.938;2023-07-28T08:55:02;1.33;;;0.60;;
8490;SDS011;4282;49.986;7.938;2023-07-28T08:57:34;3.17;;;0.80;;
8490;SDS011;4282;49.986;7.938;2023-07-28T09:00:06;1.25;;;0.50;;
8490;SDS011;4282;49.986;7.938;2023-07-28T09:02:38;0.93;;;0.77;;
8490;SDS011;4282;49.986;7.938;2023-07-28T09:05:06;0.70;;;0.70;;
8490;SDS011;4282;49.986;7.938;2023-07-28T09:07:36;4.93;;;0.93;;
8490;SDS011;4282;49.986;7.938;2023-07-28T09:10:05;0.70;;;0.70;;
8490;SDS011;4282;49.986;7.938;2023-07-28T09:12:36;1.30;;;0.80;;
8490;SDS011;4282;49.986;7.938;2023-07-28T09:15:12;1.35;;;0.93;;
8490;SDS011;4282;49.986;7.938;2023-07-28T09:17:42;1.85;;;0.60;;
8490;SDS011;4282;49.986;7.938;2023-07-28T09:20:12;1.05;;;0.63;;
8490;SDS011;4282;49.986;7.938;2023-07-28T09:22:41;0.68;;;0.68;;
8490;SDS011;4282;49.986;7.938;2023-07-28T09:25:11;0.60;;;0.60;;
8490;SDS011;4282;49.986;7.938;2023-07-28T09:27:45;0.52;;;0.52;;
8490;SDS011;4282;49.986;7.938;2023-07-28T09:30:17;0.70;;;0.70;;
8490;SDS011;4282;49.986;7.938;2023-07-28T09:32:47;0.60;;;0.60;;
8490;SDS011;4282;49.986;7.938;2023-07-28T09:35:16;0.50;;;0.50;;
8490;SDS011;4282;49.986;7.938;2023-07-28T09:37:45;0.65;;;0.52;;
8490;SDS011;4282;49.986;7.938;2023-07-28T09:40:16;0.73;;;0.63;;
8490;SDS011;4282;49.986;7.938;2023-07-28T09:42:48;0.50;;;0.50;;
8490;SDS011;4282;49.986;7.938;2023-07-28T09:45:19;0.98;;;0.50;;
8490;SDS011;4282;49.986;7.938;2023-07-28T09:47:50;0.60;;;0.43;;
8490;SDS011;4282;49.986;7.938;2023-07-28T09:50:22;1.40;;;0.60;;
8490;SDS011;4282;49.986;7.938;2023-07-28T09:52:53;0.70;;;0.60;;
8490;SDS011;4282;49.986;7.938;2023-07-28T09:55:21;0.60;;;0.60;;
8490;SDS011;4282;49.986;7.938;2023-07-28T09:57:54;0.60;;;0.60;;
8490;SDS011;4282;49.986;7.938;2023-07-28T10:00:24;0.73;;;0.50;;
8490;SDS011;4282;49.986;7.938;2023-07-28T10:02:53;0.40;;;0.40;;
8490;SDS011;4282;49.986;7.938;2023-07-28T10:05:21;0.60;;;0.60;;
8490;SDS011;4282;49.986;7.938;2023-07-28T10:07:52;1.50;;;0.60;;
8490;SDS011;4282;49.986;7.938;2023-07-28T10:10:21;0.63;;;0.60;;
8490;SDS011;4282;49.986;7.938;2023-07-28T10:12:50;1.58;;;0.63;;
8490;SDS011;4282;49.986;7.938;2023-07-28T10:15:26;1.27;;;0.63;;
8490;SDS011;4282;49.986;7.938;2023-07-28T10:17:56;1.38;;;0.85;;
8490;SDS011;4282;49.986;7.938;2023-07-28T10:20:29;0.93;;;0.60;;
8490;SDS011;4282;49.986;7.938;2023-07-28T10:23:03;0.60;;;0.60;;
8490;SDS011;4282;49.986;7.938;2023-07-28T10:25:33;1.83;;;0.50;;
8490;SDS011;4282;49.986;7.938;2023-07-28T10:28:06;0.70;;;0.70;;
8490;SDS011;4282;49.986;7.938;2023-07-28T10:30:36;0.90;;;0.52;;
8490;SDS011;4282;49.986;7.938;2023-07-28T10:33:05;1.40;;;0.90;;
8490;SDS011;4282;49.986;7.938;2023-07-28T10:35:34;1.42;;;0.77;;
8490;SDS011;4282;49.986;7.938;2023-07-28T10:41:12;0.98;;;0.70;;
8490;SDS011;4282;49.986;7.938;2023-07-28T10:43:44;0.80;;;0.70;;
8490;SDS011;4282;49.986;7.938;2023-07-28T10:46:14;1.15;;;0.80;;
8490;SDS011;4282;49.986;7.938;2023-07-28T10:48:44;0.70;;;0.70;;
8490;SDS011;4282;49.986;7.938;2023-07-28T10:51:19;1.20;;;0.82;;
8490;SDS011;4282;49.986;7.938;2023-07-28T10:53:50;1.35;;;0.80;;
8490;SDS011;4282;49.986;7.938;2023-07-28T10:56:18;0.98;;;0.90;;
8490;SDS011;4282;49.986;7.938;2023-07-28T10:58:49;1.75;;;0.95;;
8490;SDS011;4282;49.986;7.938;2023-07-28T11:01:25;2.17;;;1.95;;
8490;SDS011;4282;49.986;7.938;2023-07-28T11:04:05;2.60;;;1.02;;
8490;SDS011;4282;49.986;7.938;2023-07-28T11:06:34;1.50;;;0.80;;
8490;SDS011;4282;49.986;7.938;2023-07-28T11:09:04;1.65;;;1.00;;
8490;SDS011;4282;49.986;7.938;2023-07-28T11:11:33;1.00;;;1.00;;
8490;SDS011;4282;49.986;7.938;2023-07-28T11:14:05;1.95;;;1.13;;
8490;SDS011;4282;49.986;7.938;2023-07-28T11:16:34;1.30;;;1.20;;
8490;SDS011;4282;49.986;7.938;2023-07-28T11:19:07;3.80;;;1.40;;
8490;SDS011;4282;49.986;7.938;2023-07-28T11:21:36;1.10;;;1.00;;
8490;SDS011;4282;49.986;7.938;2023-07-28T11:24:04;1.60;;;1.50;;
8490;SDS011;4282;49.986;7.938;2023-07-28T11:26:33;1.90;;;1.27;;
8490;SDS011;4282;49.986;7.938;2023-07-28T11:29:05;4.30;;;1.50;;
8490;SDS011;4282;49.986;7.938;2023-07-28T11:31:33;1.65;;;1.55;;
8490;SDS011;4282;49.986;7.938;2023-07-28T11:34:02;1.73;;;1.63;;
8490;SDS011;4282;49.986;7.938;2023-07-28T11:36:30;1.65;;;1.30;;
8490;SDS011;4282;49.986;7.938;2023-07-28T11:38:59;1.00;;;1.00;;
8490;SDS011;4282;49.986;7.938;2023-07-28T11:41:30;1.40;;;1.30;;
8490;SDS011;4282;49.986;7.938;2023-07-28T11:43:59;2.10;;;1.58;;
8490;SDS011;4282;49.986;7.938;2023-07-28T11:46:36;5.55;;;1.85;;
8490;SDS011;4282;49.986;7.938;2023-07-28T11:49:14;1.73;;;1.33;;
8490;SDS011;4282;49.986;7.938;2023-07-28T11:51:47;5.07;;;1.50;;
8490;SDS011;4282;49.986;7.938;2023-07-28T11:54:18;1.42;;;1.33;;
8490;SDS011;4282;49.986;7.938;2023-07-28T11:56:49;3.97;;;1.10;;
8490;SDS011;4282;49.986;7.938;2023-07-28T11:59:18;2.35;;;1.30;;
8490;SDS011;4282;49.986;7.938;2023-07-28T12:01:53;2.08;;;1.10;;
8490;SDS011;4282;49.986;7.938;2023-07-28T12:04:22;2.65;;;1.20;;
8490;SDS011;4282;49.986;7.938;2023-07-28T12:07:00;0.98;;;0.98;;
8490;SDS011;4282;49.986;7.938;2023-07-28T12:09:33;2.55;;;1.95;;
8490;SDS011;4282;49.986;7.938;2023-07-28T12:12:17;2.20;;;2.00;;
8490;SDS011;4282;49.986;7.938;2023-07-28T12:14:46;3.78;;;2.63;;
8490;SDS011;4282;49.986;7.938;2023-07-28T12:17:19;2.60;;;1.90;;
8490;SDS011;4282;49.986;7.938;2023-07-28T12:19:57;3.55;;;2.13;;
8490;SDS011;4282;49.986;7.938;2023-07-28T12:22:26;1.63;;;1.42;;
8490;SDS011;4282;49.986;7.938;2023-07-28T12:24:55;2.95;;;1.88;;
8490;SDS011;4282;49.986;7.938;2023-07-28T12:27:23;1.95;;;1.70;;
8490;SDS011;4282;49.986;7.938;2023-07-28T12:29:52;1.38;;;1.27;;
8490;SDS011;4282;49.986;7.938;2023-07-28T12:32:23;2.03;;;1.60;;
8490;SDS011;4282;49.986;7.938;2023-07-28T12:34:51;1.50;;;1.27;;
8490;SDS011;4282;49.986;7.938;2023-07-28T12:37:20;2.70;;;1.20;;
8490;SDS011;4282;49.986;7.938;2023-07-28T12:39:48;1.17;;;1.08;;
8490;SDS011;4282;49.986;7.938;2023-07-28T12:42:16;1.15;;;1.05;;
8490;SDS011;4282;49.986;7.938;2023-07-28T12:44:45;1.00;;;0.95;;
8490;SDS011;4282;49.986;7.938;2023-07-28T12:47:13;3.67;;;1.35;;
8490;SDS011;4282;49.986;7.938;2023-07-28T12:49:44;2.25;;;1.80;;
8490;SDS011;4282;49.986;7.938;2023-07-28T12:52:12;2.35;;;2.05;;
8490;SDS011;4282;49.986;7.938;2023-07-28T12:54:41;1.42;;;1.33;;
8490;SDS011;4282;49.986;7.938;2023-07-28T12:57:10;1.23;;;1.13;;
8490;SDS011;4282;49.986;7.938;2023-07-28T12:59:38;1.65;;;1.27;;
8490;SDS011;4282;49.986;7.938;2023-07-28T13:02:07;1.85;;;1.40;;
8490;SDS011;4282;49.986;7.938;2023-07-28T13:04:35;1.55;;;1.45;;
8490;SDS011;4282;49.986;7.938;2023-07-28T13:07:06;1.48;;;1.38;;
8490;SDS011;4282;49.986;7.938;2023-07-28T13:09:34;3.13;;;1.63;;
8490;SDS011;4282;49.986;7.938;2023-07-28T13:12:03;1.92;;;1.30;;
8490;SDS011;4282;49.986;7.938;2023-07-28T13:14:32;1.17;;;1.10;;
8490;SDS011;4282;49.986;7.938;2023-07-28T13:17:01;1.52;;;1.15;;
8490;SDS011;4282;49.986;7.938;2023-07-28T13:19:29;1.77;;;1.67;;
8490;SDS011;4282;49.986;7.938;2023-07-28T13:21:58;2.85;;;1.30;;
8490;SDS011;4282;49.986;7.938;2023-07-28T13:24:29;2.20;;;1.10;;
8490;SDS011;4282;49.986;7.938;2023-07-28T13:26:57;1.20;;;1.10;;
8490;SDS011;4282;49.986;7.938;2023-07-28T13:29:25;1.70;;;1.10;;
8490;SDS011;4282;49.986;7.938;2023-07-28T13:31:56;2.92;;;1.17;;
8490;SDS011;4282;49.986;7.938;2023-07-28T13:34:25;1.58;;;0.95;;
8490;SDS011;4282;49.986;7.938;2023-07-28T13:36:54;1.17;;;0.93;;
8490;SDS011;4282;49.986;7.938;2023-07-28T13:39:22;1.75;;;1.00;;
8490;SDS011;4282;49.986;7.938;2023-07-28T13:41:53;0.90;;;0.90;;
8490;SDS011;4282;49.986;7.938;2023-07-28T13:44:21;0.65;;;0.65;;
8490;SDS011;4282;49.986;7.938;2023-07-28T13:46:50;0.70;;;0.70;;
8490;SDS011;4282;49.986;7.938;2023-07-28T13:49:18;0.80;;;0.80;;
8490;SDS011;4282;49.986;7.938;2023-07-28T13:51:46;1.33;;;0.70;;
8490;SDS011;4282;49.986;7.938;2023-07-28T13:54:14;1.48;;;1.00;;
8490;SDS011;4282;49.986;7.938;2023-07-28T13:56:43;2.78;;;0.80;;
8490;SDS011;4282;49.986;7.938;2023-07-28T13:59:14;1.55;;;0.80;;
8490;SDS011;4282;49.986;7.938;2023-07-28T14:01:42;2.45;;;0.90;;
8490;SDS011;4282;49.986;7.938;2023-07-28T14:04:10;0.70;;;0.70;;
8490;SDS011;4282;49.986;7.938;2023-07-28T14:06:39;1.20;;;0.90;;
8490;SDS011;4282;49.986;7.938;2023-07-28T14:09:07;0.73;;;0.73;;
8490;SDS011;4282;49.986;7.938;2023-07-28T14:11:35;1.30;;;0.70;;
8490;SDS011;4282;49.986;7.938;2023-07-28T14:14:04;0.82;;;0.82;;
8490;SDS011;4282;49.986;7.938;2023-07-28T14:16:35;2.08;;;1.10;;
8490;SDS011;4282;49.986;7.938;2023-07-28T14:19:03;0.80;;;0.77;;
8490;SDS011;4282;49.986;7.938;2023-07-28T14:21:32;2.55;;;0.85;;
8490;SDS011;4282;49.986;7.938;2023-07-28T14:24:03;0.80;;;0.80;;
8490;SDS011;4282;49.986;7.938;2023-07-28T14:26:32;1.02;;;0.60;;
8490;SDS011;4282;49.986;7.938;2023-07-28T14:29:00;1.00;;;0.60;;
8490;SDS011;4282;49.986;7.938;2023-07-28T14:31:28;0.70;;;0.63;;
8490;SDS011;4282;49.986;7.938;2023-07-28T14:33:59;2.28;;;0.50;;
8490;SDS011;4282;49.986;7.938;2023-07-28T14:36:27;1.42;;;1.23;;
8490;SDS011;4282;49.986;7.938;2023-07-28T14:38:56;1.02;;;0.80;;
8490;SDS011;4282;49.986;7.938;2023-07-28T14:41:24;2.10;;;1.00;;
8490;SDS011;4282;49.986;7.938;2023-07-28T14:43:52;0.90;;;0.90;;
8490;SDS011;4282;49.986;7.938;2023-07-28T14:46:21;1.20;;;1.10;;
8490;SDS011;4282;49.986;7.938;2023-07-28T14:48:50;1.10;;;1.10;;
8490;SDS011;4282;49.986;7.938;2023-07-28T14:51:21;1.30;;;1.20;;
8490;SDS011;4282;49.986;7.938;2023-07-28T14:53:49;3.72;;;1.48;;
8490;SDS011;4282;49.986;7.938;2023-07-28T14:56:18;2.58;;;1.65;;
8490;SDS011;4282;49.986;7.938;2023-07-28T14:58:50;1.55;;;1.45;;
8490;SDS011;4282;49.986;7.938;2023-07-28T15:01:20;1.52;;;1.30;;
8490;SDS011;4282;49.986;7.938;2023-07-28T15:03:48;1.00;;;0.93;;
8490;SDS011;4282;49.986;7.938;2023-07-28T15:06:16;0.80;;;0.80;;
8490;SDS011;4282;49.986;7.938;2023-07-28T15:08:47;1.42;;;0.95;;
8490;SDS011;4282;49.986;7.938;2023-07-28T15:11:15;1.10;;;0.85;;
8490;SDS011;4282;49.986;7.938;2023-07-28T15:13:44;0.73;;;0.73;;
8490;SDS011;4282;49.986;7.938;2023-07-28T15:16:12;2.05;;;0.80;;
8490;SDS011;4282;49.986;7.938;2023-07-28T15:18:41;0.60;;;0.60;;
8490;SDS011;4282;49.986;7.938;2023-07-28T15:21:09;2.08;;;0.88;;
8490;SDS011;4282;49.986;7.938;2023-07-28T15:23:37;2.60;;;0.82;;
8490;SDS011;4282;49.986;7.938;2023-07-28T15:26:08;0.90;;;0.73;;
8490;SDS011;4282;49.986;7.938;2023-07-28T15:28:36;2.88;;;0.88;;
8490;SDS011;4282;49.986;7.938;2023-07-28T15:31:05;3.08;;;0.80;;